sensor_id;sensor_type;location;lat;lon;timestamp;pressure;altitude;pressure_sealevel;temperature;humidity
21357;BME280;10836;53.068;18.234;2023-04-27T13:41:48;101343.31;;;10.67;37.38
21357;BME280;10836;53.068;18.234;2023-04-27T13:44:15;101351.09;;;10.85;38.14
21357;BME280;10836;53.068;18.234;2023-04-27T13:46:42;101353.34;;;10.61;38.51
21357;BME280;10836;53.068;18.234;2023-04-27T13:49:09;101349.28;;;10.64;37.87
21357;BME280;10836;53.068;18.234;2023-04-27T13:51:36;101353.78;;;11.07;38.35
21357;BME280;10836;53.068;18.234;2023-04-27T13:54:03;101356.84;;;10.57;37.05
21357;BME280;10836;53.068;18.234;2023-04-27T13:56:30;101352.88;;;10.43;37.72
21357;BME280;10836;53.068;18.234;2023-04-27T13:58:57;101362.97;;;10.42;38.49
21357;BME280;10836;53.068;18.234;2023-04-27T14:01:24;101353.91;;;11.27;38.36
21357;BME280;10836;53.068;18.234;2023-04-27T14:03:52;101354.72;;;11.65;36.83
21357;BME280;10836;53.068;18.234;2023-04-27T14:06:19;101357.34;;;11.50;36.82
21357;BME280;10836;53.068;18.234;2023-04-27T14:08:47;101351.81;;;11.40;35.69
21357;BME280;10836;53.068;18.234;2023-04-27T14:11:13;101358.09;;;11.03;37.06
21357;BME280;10836;53.068;18.234;2023-04-27T14:13:41;101341.44;;;10.73;37.94
21357;BME280;10836;53.068;18.234;2023-04-27T14:16:07;101351.75;;;10.65;36.78
21357;BME280;10836;53.068;18.234;2023-04-27T14:18:35;101348.75;;;10.40;38.00
21357;BME280;10836;53.068;18.234;2023-04-27T14:21:03;101354.84;;;10.47;37.75
21357;BME280;10836;53.068;18.234;2023-04-27T14:23:30;101354.47;;;10.17;38.84
21357;BME280;10836;53.068;18.234;2023-04-27T14:25:57;101359.28;;;10.10;39.46
21357;BME280;10836;53.068;18.234;2023-04-27T14:28:24;101361.97;;;10.05;40.45
21357;BME280;10836;53.068;18.234;2023-04-27T14:30:50;101366.78;;;9.97;41.56
21357;BME280;10836;53.068;18.234;2023-04-27T14:33:17;101372.56;;;10.01;40.11
21357;BME280;10836;53.068;18.234;2023-04-27T14:35:44;101374.13;;;10.36;41.35
21357;BME280;10836;53.068;18.234;2023-04-27T14:38:11;101368.34;;;10.32;40.24
21357;BME280;10836;53.068;18.234;2023-04-27T14:40:38;101367.28;;;10.92;40.85
21357;BME280;10836;53.068;18.234;2023-04-27T14:43:05;101369.03;;;11.03;39.57
21357;BME280;10836;53.068;18.234;2023-04-27T14:45:32;101362.13;;;10.95;37.84
21357;BME280;10836;53.068;18.234;2023-04-27T14:48:16;101369.13;;;10.54;38.60
21357;BME280;10836;53.068;18.234;2023-04-27T14:50:43;101361.94;;;10.48;38.02
21357;BME280;10836;53.068;18.234;2023-04-27T14:53:10;101367.69;;;10.25;38.29
21357;BME280;10836;53.068;18.234;2023-04-27T14:55:37;101370.56;;;9.96;38.98
21357;BME280;10836;53.068;18.234;2023-04-27T14:58:04;101373.00;;;10.15;41.39
21357;BME280;10836;53.068;18.234;2023-04-27T15:00:31;101376.31;;;10.17;39.39
21357;BME280;10836;53.068;18.234;2023-04-27T15:02:58;101371.03;;;10.10;39.24
21357;BME280;10836;53.068;18.234;2023-04-27T15:05:25;101380.03;;;10.11;39.68
21357;BME280;10836;53.068;18.234;2023-04-27T15:07:52;101377.00;;;10.07;39.72
21357;BME280;10836;53.068;18.234;2023-04-27T15:10:18;101381.50;;;9.96;41.50
21357;BME280;10836;53.068;18.234;2023-04-27T15:12:46;101377.06;;;9.90;40.95
21357;BME280;10836;53.068;18.234;2023-04-27T15:15:13;101383.59;;;9.89;41.19
21357;BME280;10836;53.068;18.234;2023-04-27T15:17:40;101380.72;;;9.79;42.41
21357;BME280;10836;53.068;18.234;2023-04-27T15:20:07;101387.25;;;9.78;41.60
21357;BME280;10836;53.068;18.234;2023-04-27T15:22:34;101389.50;;;9.81;42.76
21357;BME280;10836;53.068;18.234;2023-04-27T15:25:01;101393.56;;;10.00;43.52
21357;BME280;10836;53.068;18.234;2023-04-27T15:27:28;101397.31;;;10.16;41.63
21357;BME280;10836;53.068;18.234;2023-04-27T15:29:56;101398.72;;;10.19;43.13
21357;BME280;10836;53.068;18.234;2023-04-27T15:32:23;101395.19;;;10.01;42.84
21357;BME280;10836;53.068;18.234;2023-04-27T15:34:58;101400.88;;;9.95;42.16
21357;BME280;10836;53.068;18.234;2023-04-27T15:37:27;101402.31;;;10.02;44.61
21357;BME280;10836;53.068;18.234;2023-04-27T15:39:55;101401.69;;;9.95;42.67
21357;BME280;10836;53.068;18.234;2023-04-27T15:42:22;101405.03;;;10.19;43.04
21357;BME280;10836;53.068;18.234;2023-04-27T15:44:49;101402.34;;;10.46;42.68
21357;BME280;10836;53.068;18.234;2023-04-27T15:47:16;101396.28;;;10.39;42.56
21357;BME280;10836;53.068;18.234;2023-04-27T15:49:43;101399.22;;;10.59;43.12
21357;BME280;10836;53.068;18.234;2023-04-27T15:52:22;101386.47;;;10.97;41.88
21357;BME280;10836;53.068;18.234;2023-04-27T15:54:49;101398.38;;;11.13;41.29
21357;BME280;10836;53.068;18.234;2023-04-27T15:57:16;101390.22;;;11.18;39.84
21357;BME280;10836;53.068;18.234;2023-04-27T15:59:43;101397.59;;;11.17;38.67
21357;BME280;10836;53.068;18.234;2023-04-27T16:02:11;101395.91;;;11.11;39.71
21357;BME280;10836;53.068;18.234;2023-04-27T16:04:38;101384.41;;;11.09;39.04
21357;BME280;10836;53.068;18.234;2023-04-27T16:07:05;101393.16;;;10.84;38.86
21357;BME280;10836;53.068;18.234;2023-04-27T16:09:33;101388.41;;;10.70;38.18
21357;BME280;10836;53.068;18.234;2023-04-27T16:12:00;101389.94;;;10.60;38.95
21357;BME280;10836;53.068;18.234;2023-04-27T16:14:27;101387.16;;;10.55;40.84
21357;BME280;10836;53.068;18.234;2023-04-27T16:16:54;101404.56;;;10.49;38.64
21357;BME280;10836;53.068;18.234;2023-04-27T16:19:27;101389.25;;;10.48;39.68
21357;BME280;10836;53.068;18.234;2023-04-27T16:21:54;101387.06;;;10.23;39.96
21357;BME280;10836;53.068;18.234;2023-04-27T16:24:20;101393.38;;;10.07;39.96
21357;BME280;10836;53.068;18.234;2023-04-27T16:26:48;101398.66;;;10.14;40.70
21357;BME280;10836;53.068;18.234;2023-04-27T16:29:14;101398.06;;;10.12;41.19
21357;BME280;10836;53.068;18.234;2023-04-27T16:31:42;101396.50;;;10.16;41.83
21357;BME280;10836;53.068;18.234;2023-04-27T16:34:10;101401.78;;;10.22;42.03
21357;BME280;10836;53.068;18.234;2023-04-27T16:36:37;101408.84;;;10.01;42.80
21357;BME280;10836;53.068;18.234;2023-04-27T16:39:04;101409.75;;;9.85;44.01
21357;BME280;10836;53.068;18.234;2023-04-27T16:41:31;101408.69;;;9.70;45.32
21357;BME280;10836;53.068;18.234;2023-04-27T16:43:57;101406.75;;;9.48;45.05
21357;BME280;10836;53.068;18.234;2023-04-27T16:46:24;101404.41;;;9.57;45.31
21357;BME280;10836;53.068;18.234;2023-04-27T16:48:51;101401.03;;;9.50;44.73
21357;BME280;10836;53.068;18.234;2023-04-27T16:51:18;101399.47;;;9.20;45.07
21357;BME280;10836;53.068;18.234;2023-04-27T16:53:45;101394.69;;;9.27;46.00
21357;BME280;10836;53.068;18.234;2023-04-27T16:56:13;101394.25;;;9.19;45.45
21357;BME280;10836;53.068;18.234;2023-04-27T16:58:41;101401.47;;;9.08;47.08
21357;BME280;10836;53.068;18.234;2023-04-27T17:01:08;101396.50;;;9.05;45.54
21357;BME280;10836;53.068;18.234;2023-04-27T17:03:34;101402.78;;;9.06;46.99
21357;BME280;10836;53.068;18.234;2023-04-27T17:06:02;101417.00;;;8.79;47.64
21357;BME280;10836;53.068;18.234;2023-04-27T17:08:29;101414.84;;;8.64;47.97
21357;BME280;10836;53.068;18.234;2023-04-27T17:10:56;101412.25;;;8.58;48.16
21357;BME280;10836;53.068;18.234;2023-04-27T17:13:23;101405.41;;;8.55;48.60
21357;BME280;10836;53.068;18.234;2023-04-27T17:15:50;101413.16;;;8.35;48.73
21357;BME280;10836;53.068;18.234;2023-04-27T17:18:17;101411.72;;;8.44;50.78
21357;BME280;10836;53.068;18.234;2023-04-27T17:20:44;101411.47;;;8.46;50.45
21357;BME280;10836;53.068;18.234;2023-04-27T17:23:11;101411.00;;;8.49;51.59
21357;BME280;10836;53.068;18.234;2023-04-27T17:25:38;101416.19;;;8.50;51.52
21357;BME280;10836;53.068;18.234;2023-04-27T17:28:05;101412.19;;;8.41;51.66
21357;BME280;10836;53.068;18.234;2023-04-27T17:30:32;101410.88;;;8.32;52.97
21357;BME280;10836;53.068;18.234;2023-04-27T17:32:59;101421.56;;;8.33;54.24
21357;BME280;10836;53.068;18.234;2023-04-27T17:35:26;101415.06;;;8.23;51.21
21357;BME280;10836;53.068;18.234;2023-04-27T17:37:53;101424.56;;;8.09;52.40
21357;BME280;10836;53.068;18.234;2023-04-27T17:40:20;101416.41;;;7.97;53.17
21357;BME280;10836;53.068;18.234;2023-04-27T17:42:48;101425.56;;;7.79;52.65
21357;BME280;10836;53.068;18.234;2023-04-27T17:45:15;101425.44;;;7.62;54.91
21357;BME280;10836;53.068;18.234;2023-04-27T17:47:42;101432.50;;;7.40;55.92
21357;BME280;10836;53.068;18.234;2023-04-27T17:50:09;101429.53;;;7.42;56.49
21357;BME280;10836;53.068;18.234;2023-04-27T17:52:37;101427.28;;;7.27;56.20
21357;BME280;10836;53.068;18.234;2023-04-27T17:55:05;101423.81;;;7.08;54.51
21357;BME280;10836;53.068;18.234;2023-04-27T17:57:32;101423.00;;;7.08;55.00
21357;BME280;10836;53.068;18.234;2023-04-27T17:59:59;101435.25;;;6.98;55.07
21357;BME280;10836;53.068;18.234;2023-04-27T18:02:26;101431.47;;;6.99;56.53
21357;BME280;10836;53.068;18.234;2023-04-27T18:04:53;101427.94;;;6.99;55.75
21357;BME280;10836;53.068;18.234;2023-04-27T18:07:21;101437.81;;;6.93;55.96
21357;BME280;10836;53.068;18.234;2023-04-27T18:09:48;101451.00;;;6.78;56.64
21357;BME280;10836;53.068;18.234;2023-04-27T18:12:15;101447.34;;;6.54;57.63
21357;BME280;10836;53.068;18.234;2023-04-27T18:14:43;101454.78;;;6.47;58.49
21357;BME280;10836;53.068;18.234;2023-04-27T18:17:09;101446.66;;;6.29;60.61
21357;BME280;10836;53.068;18.234;2023-04-27T18:19:37;101458.84;;;6.20;61.17
21357;BME280;10836;53.068;18.234;2023-04-27T18:22:03;101456.59;;;5.98;61.54
21357;BME280;10836;53.068;18.234;2023-04-27T18:24:30;101452.53;;;5.83;63.19
21357;BME280;10836;53.068;18.234;2023-04-27T18:26:58;101456.66;;;5.67;63.60
21357;BME280;10836;53.068;18.234;2023-04-27T18:29:26;101460.38;;;5.48;66.00
21357;BME280;10836;53.068;18.234;2023-04-27T18:31:52;101460.03;;;5.38;66.82
21357;BME280;10836;53.068;18.234;2023-04-27T18:34:19;101460.44;;;5.41;65.62
21357;BME280;10836;53.068;18.234;2023-04-27T18:36:46;101465.13;;;5.27;66.57
21357;BME280;10836;53.068;18.234;2023-04-27T18:39:18;101464.88;;;5.04;68.23
21357;BME280;10836;53.068;18.234;2023-04-27T18:41:45;101472.66;;;4.94;69.18
21357;BME280;10836;53.068;18.234;2023-04-27T18:44:12;101472.94;;;4.79;72.39
21357;BME280;10836;53.068;18.234;2023-04-27T18:46:41;101479.66;;;4.70;74.11
21357;BME280;10836;53.068;18.234;2023-04-27T18:49:08;101483.88;;;4.59;75.67
21357;BME280;10836;53.068;18.234;2023-04-27T18:51:35;101484.91;;;4.58;78.65
21357;BME280;10836;53.068;18.234;2023-04-27T18:54:02;101486.00;;;4.44;79.27
21357;BME280;10836;53.068;18.234;2023-04-27T18:56:29;101487.75;;;4.32;81.16
21357;BME280;10836;53.068;18.234;2023-04-27T18:58:57;101487.56;;;4.14;81.68
21357;BME280;10836;53.068;18.234;2023-04-27T19:01:27;101492.78;;;4.02;83.47
21357;BME280;10836;53.068;18.234;2023-04-27T19:03:56;101499.28;;;3.81;85.18
21357;BME280;10836;53.068;18.234;2023-04-27T19:06:24;101501.16;;;3.74;86.07
21357;BME280;10836;53.068;18.234;2023-04-27T19:08:51;101500.94;;;3.56;87.91
21357;BME280;10836;53.068;18.234;2023-04-27T19:11:17;101499.69;;;3.25;90.41
21357;BME280;10836;53.068;18.234;2023-04-27T19:13:48;101497.22;;;3.30;91.61
21357;BME280;10836;53.068;18.234;2023-04-27T19:16:16;101492.44;;;3.32;92.77
21357;BME280;10836;53.068;18.234;2023-04-27T19:18:44;101496.97;;;3.12;93.69
21357;BME280;10836;53.068;18.234;2023-04-27T19:21:10;101505.84;;;2.86;95.89
21357;BME280;10836;53.068;18.234;2023-04-27T19:23:38;101508.94;;;2.83;95.99
21357;BME280;10836;53.068;18.234;2023-04-27T19:26:05;101509.78;;;2.84;98.29
21357;BME280;10836;53.068;18.234;2023-04-27T19:28:39;101510.97;;;2.68;99.06
21357;BME280;10836;53.068;18.234;2023-04-27T19:31:06;101507.81;;;2.51;100.00
21357;BME280;10836;53.068;18.234;2023-04-27T19:33:33;101507.31;;;2.34;100.00
21357;BME280;10836;53.068;18.234;2023-04-27T19:36:00;101506.63;;;2.26;100.00
21357;BME280;10836;53.068;18.234;2023-04-27T19:38:27;101514.03;;;2.11;100.00
21357;BME280;10836;53.068;18.234;2023-04-27T19:40:55;101514.03;;;2.11;100.00
21357;BME280;10836;53.068;18.234;2023-04-27T19:43:22;101510.75;;;2.22;100.00
21357;BME280;10836;53.068;18.234;2023-04-27T19:45:48;101511.16;;;2.19;100.00
21357;BME280;10836;53.068;18.234;2023-04-27T19:48:16;101509.91;;;2.15;100.00
21357;BME280;10836;53.068;18.234;2023-04-27T19:50:43;101513.19;;;2.17;100.00
21357;BME280;10836;53.068;18.234;2023-04-27T19:53:10;101519.66;;;2.22;100.00
21357;BME280;10836;53.068;18.234;2023-04-27T19:55:37;101522.16;;;2.24;100.00
21357;BME280;10836;53.068;18.234;2023-04-27T19:58:06;101525.34;;;2.34;100.00
21357;BME280;10836;53.068;18.234;2023-04-27T20:00:32;101516.66;;;2.39;100.00
21357;BME280;10836;53.068;18.234;2023-04-27T20:03:00;101522.47;;;2.42;100.00
21357;BME280;10836;53.068;18.234;2023-04-27T20:05:27;101526.75;;;2.30;100.00
21357;BME280;10836;53.068;18.234;2023-04-27T20:07:54;101518.75;;;2.43;100.00
21357;BME280;10836;53.068;18.234;2023-04-27T20:10:21;101524.94;;;2.37;100.00
21357;BME280;10836;53.068;18.234;2023-04-27T20:12:48;101534.09;;;2.43;100.00
21357;BME280;10836;53.068;18.234;2023-04-27T20:15:23;101520.81;;;2.41;100.00
21357;BME280;10836;53.068;18.234;2023-04-27T20:17:53;101531.91;;;2.59;100.00
21357;BME280;10836;53.068;18.234;2023-04-27T20:20:21;101531.28;;;2.57;100.00
21357;BME280;10836;53.068;18.234;2023-04-27T20:22:48;101525.88;;;2.57;100.00
21357;BME280;10836;53.068;18.234;2023-04-27T20:25:15;101534.91;;;2.43;100.00
21357;BME280;10836;53.068;18.234;2023-04-27T20:27:42;101529.50;;;2.37;100.00
21357;BME280;10836;53.068;18.234;2023-04-27T20:30:09;101529.13;;;2.46;100.00
21357;BME280;10836;53.068;18.234;2023-04-27T20:32:36;101529.53;;;2.43;100.00
21357;BME280;10836;53.068;18.234;2023-04-27T20:35:05;101535.13;;;2.07;100.00
21357;BME280;10836;53.068;18.234;2023-04-27T20:37:37;101540.03;;;2.31;100.00
21357;BME280;10836;53.068;18.234;2023-04-27T20:40:05;101541.97;;;2.44;100.00
21357;BME280;10836;53.068;18.234;2023-04-27T20:42:33;101543.44;;;2.47;100.00
21357;BME280;10836;53.068;18.234;2023-04-27T20:45:01;101541.97;;;2.44;100.00
21357;BME280;10836;53.068;18.234;2023-04-27T20:47:31;101536.44;;;2.52;100.00
21357;BME280;10836;53.068;18.234;2023-04-27T20:49:58;101540.16;;;2.51;100.00
21357;BME280;10836;53.068;18.234;2023-04-27T20:52:25;101533.94;;;2.51;100.00
21357;BME280;10836;53.068;18.234;2023-04-27T20:54:56;101543.91;;;2.57;100.00
21357;BME280;10836;53.068;18.234;2023-04-27T20:57:23;101536.66;;;2.57;100.00
21357;BME280;10836;53.068;18.234;2023-04-27T20:59:50;101545.59;;;2.64;100.00
21357;BME280;10836;53.068;18.234;2023-04-27T21:02:17;101548.69;;;2.61;100.00
21357;BME280;10836;53.068;18.234;2023-04-27T21:04:44;101540.00;;;2.66;100.00
21357;BME280;10836;53.068;18.234;2023-04-27T21:07:11;101531.28;;;2.64;100.00
21357;BME280;10836;53.068;18.234;2023-04-27T21:09:38;101541.63;;;2.54;100.00
21357;BME280;10836;53.068;18.234;2023-04-27T21:12:05;101541.34;;;2.42;100.00
21357;BME280;10836;53.068;18.234;2023-04-27T21:14:32;101534.44;;;2.33;100.00
21357;BME280;10836;53.068;18.234;2023-04-27T21:17:00;101542.00;;;2.10;100.00
21357;BME280;10836;53.068;18.234;2023-04-27T21:19:27;101536.72;;;1.95;100.00
21357;BME280;10836;53.068;18.234;2023-04-27T21:21:54;101544.59;;;1.96;100.00
21357;BME280;10836;53.068;18.234;2023-04-27T21:24:21;101536.22;;;1.85;100.00
21357;BME280;10836;53.068;18.234;2023-04-27T21:26:48;101541.16;;;1.81;100.00
21357;BME280;10836;53.068;18.234;2023-04-27T21:29:15;101534.53;;;1.84;100.00
21357;BME280;10836;53.068;18.234;2023-04-27T21:31:42;101533.38;;;1.65;100.00
21357;BME280;10836;53.068;18.234;2023-04-27T21:34:09;101531.84;;;1.56;100.00
21357;BME280;10836;53.068;18.234;2023-04-27T21:36:36;101533.31;;;1.37;100.00
21357;BME280;10836;53.068;18.234;2023-04-27T21:39:04;101537.00;;;1.29;100.00
21357;BME280;10836;53.068;18.234;2023-04-27T21:41:33;101534.06;;;1.24;100.00
21357;BME280;10836;53.068;18.234;2023-04-27T21:44:00;101538.63;;;1.30;100.00
21357;BME280;10836;53.068;18.234;2023-04-27T21:46:27;101536.16;;;1.29;100.00
21357;BME280;10836;53.068;18.234;2023-04-27T21:48:54;101542.25;;;1.16;100.00
21357;BME280;10836;53.068;18.234;2023-04-27T21:51:21;101539.88;;;1.07;100.00
21357;BME280;10836;53.068;18.234;2023-04-27T21:53:48;101538.38;;;1.04;100.00
21357;BME280;10836;53.068;18.234;2023-04-27T21:56:14;101537.41;;;0.90;100.00
21357;BME280;10836;53.068;18.234;2023-04-27T21:58:41;101544.81;;;0.88;100.00
21357;BME280;10836;53.068;18.234;2023-04-27T22:01:08;101543.09;;;0.81;100.00
21357;BME280;10836;53.068;18.234;2023-04-27T22:03:36;101552.03;;;0.66;100.00
21357;BME280;10836;53.068;18.234;2023-04-27T22:06:04;101549.44;;;0.58;100.00
21357;BME280;10836;53.068;18.234;2023-04-27T22:08:31;101549.06;;;0.47;100.00
21357;BME280;10836;53.068;18.234;2023-04-27T22:10:58;101549.19;;;0.39;100.00
21357;BME280;10836;53.068;18.234;2023-04-27T22:13:25;101552.81;;;0.31;100.00
21357;BME280;10836;53.068;18.234;2023-04-27T22:15:52;101551.59;;;0.33;100.00
21357;BME280;10836;53.068;18.234;2023-04-27T22:18:19;101549.19;;;0.24;100.00
21357;BME280;10836;53.068;18.234;2023-04-27T22:20:46;101553.63;;;0.17;100.00
21357;BME280;10836;53.068;18.234;2023-04-27T22:23:13;101548.63;;;0.14;100.00
21357;BME280;10836;53.068;18.234;2023-04-27T22:25:40;101550.00;;;0.10;100.00
21357;BME280;10836;53.068;18.234;2023-04-27T22:28:09;101555.94;;;-0.10;100.00
21357;BME280;10836;53.068;18.234;2023-04-27T22:30:37;101550.91;;;-0.13;100.00
21357;BME280;10836;53.068;18.234;2023-04-27T22:33:04;101548.97;;;-0.19;100.00
21357;BME280;10836;53.068;18.234;2023-04-27T22:35:32;101549.75;;;-0.33;100.00
21357;BME280;10836;53.068;18.234;2023-04-27T22:37:59;101546.22;;;-0.48;100.00
21357;BME280;10836;53.068;18.234;2023-04-27T22:40:26;101549.31;;;-0.59;100.00
21357;BME280;10836;53.068;18.234;2023-04-27T22:42:54;101555.41;;;-0.65;100.00
21357;BME280;10836;53.068;18.234;2023-04-27T22:45:22;101546.44;;;-0.81;100.00
21357;BME280;10836;53.068;18.234;2023-04-27T22:47:49;101554.31;;;-1.02;100.00
21357;BME280;10836;53.068;18.234;2023-04-27T22:50:16;101550.28;;;-0.98;100.00
21357;BME280;10836;53.068;18.234;2023-04-27T22:52:43;101548.56;;;-0.91;100.00
21357;BME280;10836;53.068;18.234;2023-04-27T22:55:11;101551.91;;;-0.89;100.00
21357;BME280;10836;53.068;18.234;2023-04-27T22:57:39;101547.09;;;-0.79;100.00
21357;BME280;10836;53.068;18.234;2023-04-27T23:00:07;101547.78;;;-0.77;100.00
21357;BME280;10836;53.068;18.234;2023-04-27T23:02:38;101547.19;;;-0.87;100.00
21357;BME280;10836;53.068;18.234;2023-04-27T23:05:06;101548.13;;;-1.03;100.00
21357;BME280;10836;53.068;18.234;2023-04-27T23:07:33;101550.38;;;-1.14;100.00
21357;BME280;10836;53.068;18.234;2023-04-27T23:10:00;101546.66;;;-1.36;100.00
21357;BME280;10836;53.068;18.234;2023-04-27T23:12:29;101543.31;;;-1.38;100.00
21357;BME280;10836;53.068;18.234;2023-04-27T23:14:57;101545.50;;;-1.42;100.00
21357;BME280;10836;53.068;18.234;2023-04-27T23:17:24;101550.53;;;-1.47;100.00
21357;BME280;10836;53.068;18.234;2023-04-27T23:20:02;101543.19;;;-1.53;100.00
21357;BME280;10836;53.068;18.234;2023-04-27T23:22:52;101554.28;;;-1.64;100.00
21357;BME280;10836;53.068;18.234;2023-04-27T23:25:19;101545.94;;;-1.69;100.00
21357;BME280;10836;53.068;18.234;2023-04-27T23:27:46;101544.81;;;-1.75;100.00
21357;BME280;10836;53.068;18.234;2023-04-27T23:30:17;101546.91;;;-1.62;100.00
21357;BME280;10836;53.068;18.234;2023-04-27T23:32:43;101542.22;;;-1.60;100.00
21357;BME280;10836;53.068;18.234;2023-04-27T23:35:10;101552.84;;;-1.75;100.00
21357;BME280;10836;53.068;18.234;2023-04-27T23:37:37;101544.31;;;-1.86;100.00
21357;BME280;10836;53.068;18.234;2023-04-27T23:40:05;101545.00;;;-1.92;100.00
21357;BME280;10836;53.068;18.234;2023-04-27T23:42:32;101551.69;;;-1.88;100.00
21357;BME280;10836;53.068;18.234;2023-04-27T23:44:59;101549.34;;;-1.91;100.00
21357;BME280;10836;53.068;18.234;2023-04-27T23:47:28;101545.84;;;-1.92;100.00
21357;BME280;10836;53.068;18.234;2023-04-27T23:49:55;101543.31;;;-1.85;100.00
21357;BME280;10836;53.068;18.234;2023-04-27T23:52:21;101551.34;;;-1.77;100.00
21357;BME280;10836;53.068;18.234;2023-04-27T23:54:48;101547.25;;;-1.65;100.00
21357;BME280;10836;53.068;18.234;2023-04-27T23:57:15;101550.59;;;-1.63;100.00
21357;BME280;10836;53.068;18.234;2023-04-27T23:59:42;101549.94;;;-1.73;100.00
